sensor_id;sensor_type;location;lat;lon;timestamp;P1;durP1;ratioP1;P2;durP2;ratioP2
39502;SDS011;26970;49.900;10.774;2023-07-20T00:01:22;7.15;;;4.32;;
39502;SDS011;26970;49.900;10.774;2023-07-20T00:03:48;7.93;;;4.22;;
39502;SDS011;26970;49.900;10.774;2023-07-20T00:06:19;9.27;;;4.40;;
39502;SDS011;26970;49.900;10.774;2023-07-20T00:08:49;8.00;;;4.25;;
39502;SDS011;26970;49.900;10.774;2023-07-20T00:11:16;8.73;;;4.80;;
39502;SDS011;26970;49.900;10.774;2023-07-20T00:13:41;7.03;;;5.20;;
39502;SDS011;26970;49.900;10.774;2023-07-20T00:16:07;9.35;;;4.90;;
39502;SDS011;26970;49.900;10.774;2023-07-20T00:18:33;9.13;;;5.35;;
39502;SDS011;26970;49.900;10.774;2023-07-20T00:20:58;7.45;;;5.28;;
39502;SDS011;26970;49.900;10.774;2023-07-20T00:23:27;9.75;;;4.50;;
39502;SDS011;26970;49.900;10.774;2023-07-20T00:25:52;9.10;;;5.07;;
39502;SDS011;26970;49.900;10.774;2023-07-20T00:28:19;9.57;;;5.38;;
39502;SDS011;26970;49.900;10.774;2023-07-20T00:30:45;9.15;;;5.43;;
39502;SDS011;26970;49.900;10.774;2023-07-20T00:33:10;6.47;;;4.80;;
39502;SDS011;26970;49.900;10.774;2023-07-20T00:35:37;9.43;;;5.18;;
39502;SDS011;26970;49.900;10.774;2023-07-20T00:38:03;7.85;;;5.03;;
39502;SDS011;26970;49.900;10.774;2023-07-20T00:40:36;8.45;;;5.20;;
39502;SDS011;26970;49.900;10.774;2023-07-20T00:43:06;10.60;;;5.63;;
39502;SDS011;26970;49.900;10.774;2023-07-20T00:45:32;8.00;;;6.10;;
39502;SDS011;26970;49.900;10.774;2023-07-20T00:47:59;9.20;;;4.68;;
39502;SDS011;26970;49.900;10.774;2023-07-20T00:50:26;8.77;;;4.70;;
39502;SDS011;26970;49.900;10.774;2023-07-20T00:52:54;7.40;;;5.25;;
39502;SDS011;26970;49.900;10.774;2023-07-20T00:55:21;7.20;;;5.00;;
39502;SDS011;26970;49.900;10.774;2023-07-20T00:57:47;8.70;;;5.00;;
39502;SDS011;26970;49.900;10.774;2023-07-20T01:00:13;9.10;;;4.65;;
39502;SDS011;26970;49.900;10.774;2023-07-20T01:02:40;9.30;;;4.80;;
39502;SDS011;26970;49.900;10.774;2023-07-20T01:05:05;9.32;;;5.07;;
39502;SDS011;26970;49.900;10.774;2023-07-20T01:07:34;9.52;;;4.78;;
39502;SDS011;26970;49.900;10.774;2023-07-20T01:10:20;8.93;;;4.70;;
39502;SDS011;26970;49.900;10.774;2023-07-20T01:13:07;9.40;;;5.30;;
39502;SDS011;26970;49.900;10.774;2023-07-20T01:15:34;6.38;;;4.57;;
39502;SDS011;26970;49.900;10.774;2023-07-20T01:18:00;8.00;;;5.00;;
39502;SDS011;26970;49.900;10.774;2023-07-20T01:20:30;7.72;;;4.55;;
39502;SDS011;26970;49.900;10.774;2023-07-20T01:33:56;8.25;;;5.03;;
39502;SDS011;26970;49.900;10.774;2023-07-20T01:36:24;10.38;;;5.45;;
39502;SDS011;26970;49.900;10.774;2023-07-20T01:38:51;9.20;;;5.07;;
39502;SDS011;26970;49.900;10.774;2023-07-20T01:41:17;8.52;;;5.18;;
39502;SDS011;26970;49.900;10.774;2023-07-20T01:43:43;7.78;;;5.65;;
39502;SDS011;26970;49.900;10.774;2023-07-20T01:46:09;7.78;;;4.65;;
39502;SDS011;26970;49.900;10.774;2023-07-20T01:48:34;9.70;;;5.45;;
39502;SDS011;26970;49.900;10.774;2023-07-20T01:51:00;8.10;;;5.03;;
39502;SDS011;26970;49.900;10.774;2023-07-20T01:53:25;11.98;;;5.65;;
39502;SDS011;26970;49.900;10.774;2023-07-20T01:55:54;10.88;;;5.50;;
39502;SDS011;26970;49.900;10.774;2023-07-20T01:58:20;9.43;;;5.22;;
39502;SDS011;26970;49.900;10.774;2023-07-20T02:00:45;8.02;;;5.30;;
39502;SDS011;26970;49.900;10.774;2023-07-20T02:03:11;8.18;;;5.60;;
39502;SDS011;26970;49.900;10.774;2023-07-20T02:05:37;8.68;;;5.93;;
39502;SDS011;26970;49.900;10.774;2023-07-20T02:08:03;9.65;;;5.00;;
39502;SDS011;26970;49.900;10.774;2023-07-20T02:10:28;11.07;;;5.70;;
39502;SDS011;26970;49.900;10.774;2023-07-20T02:12:54;7.60;;;4.95;;
39502;SDS011;26970;49.900;10.774;2023-07-20T02:15:20;8.07;;;5.00;;
39502;SDS011;26970;49.900;10.774;2023-07-20T02:17:46;10.48;;;5.15;;
39502;SDS011;26970;49.900;10.774;2023-07-20T02:20:11;7.70;;;4.60;;
39502;SDS011;26970;49.900;10.774;2023-07-20T02:22:37;7.05;;;4.10;;
39502;SDS011;26970;49.900;10.774;2023-07-20T02:25:04;7.18;;;4.60;;
39502;SDS011;26970;49.900;10.774;2023-07-20T02:27:30;8.77;;;4.60;;
39502;SDS011;26970;49.900;10.774;2023-07-20T02:29:55;6.85;;;4.15;;
39502;SDS011;26970;49.900;10.774;2023-07-20T02:32:21;6.93;;;4.15;;
39502;SDS011;26970;49.900;10.774;2023-07-20T02:34:47;7.22;;;4.03;;
39502;SDS011;26970;49.900;10.774;2023-07-20T02:37:12;6.97;;;4.10;;
39502;SDS011;26970;49.900;10.774;2023-07-20T02:39:38;9.02;;;3.97;;
39502;SDS011;26970;49.900;10.774;2023-07-20T02:42:04;6.70;;;3.78;;
39502;SDS011;26970;49.900;10.774;2023-07-20T02:44:30;6.85;;;3.83;;
39502;SDS011;26970;49.900;10.774;2023-07-20T02:46:56;6.30;;;4.28;;
39502;SDS011;26970;49.900;10.774;2023-07-20T02:49:21;6.18;;;4.13;;
39502;SDS011;26970;49.900;10.774;2023-07-20T02:51:47;7.63;;;4.10;;
39502;SDS011;26970;49.900;10.774;2023-07-20T02:54:12;7.40;;;4.07;;
39502;SDS011;26970;49.900;10.774;2023-07-20T02:56:38;6.78;;;3.88;;
39502;SDS011;26970;49.900;10.774;2023-07-20T02:59:03;6.80;;;4.10;;
39502;SDS011;26970;49.900;10.774;2023-07-20T03:01:29;6.97;;;3.70;;
39502;SDS011;26970;49.900;10.774;2023-07-20T03:03:55;8.18;;;4.00;;
39502;SDS011;26970;49.900;10.774;2023-07-20T03:06:21;7.53;;;3.90;;
39502;SDS011;26970;49.900;10.774;2023-07-20T03:08:47;6.85;;;4.13;;
39502;SDS011;26970;49.900;10.774;2023-07-20T03:11:16;6.15;;;3.83;;
39502;SDS011;26970;49.900;10.774;2023-07-20T03:13:42;7.55;;;4.30;;
39502;SDS011;26970;49.900;10.774;2023-07-20T03:16:08;7.55;;;4.03;;
39502;SDS011;26970;49.900;10.774;2023-07-20T03:18:36;6.43;;;3.75;;
39502;SDS011;26970;49.900;10.774;2023-07-20T03:21:02;7.43;;;4.10;;
39502;SDS011;26970;49.900;10.774;2023-07-20T03:23:27;6.45;;;4.03;;
39502;SDS011;26970;49.900;10.774;2023-07-20T03:25:53;8.15;;;3.70;;
39502;SDS011;26970;49.900;10.774;2023-07-20T03:28:20;9.68;;;4.03;;
39502;SDS011;26970;49.900;10.774;2023-07-20T03:30:45;7.90;;;4.30;;
39502;SDS011;26970;49.900;10.774;2023-07-20T03:33:11;9.80;;;3.83;;
39502;SDS011;26970;49.900;10.774;2023-07-20T03:35:37;8.38;;;3.80;;
39502;SDS011;26970;49.900;10.774;2023-07-20T03:38:03;11.77;;;3.67;;
39502;SDS011;26970;49.900;10.774;2023-07-20T03:40:29;7.18;;;3.92;;
39502;SDS011;26970;49.900;10.774;2023-07-20T03:42:55;10.50;;;3.63;;
39502;SDS011;26970;49.900;10.774;2023-07-20T03:45:20;8.15;;;3.90;;
39502;SDS011;26970;49.900;10.774;2023-07-20T03:47:48;7.00;;;4.10;;
39502;SDS011;26970;49.900;10.774;2023-07-20T03:50:14;8.75;;;3.97;;
39502;SDS011;26970;49.900;10.774;2023-07-20T03:52:40;7.70;;;4.10;;
39502;SDS011;26970;49.900;10.774;2023-07-20T03:55:05;6.50;;;3.90;;
39502;SDS011;26970;49.900;10.774;2023-07-20T03:57:31;6.97;;;4.00;;
39502;SDS011;26970;49.900;10.774;2023-07-20T03:59:58;6.03;;;3.88;;
39502;SDS011;26970;49.900;10.774;2023-07-20T04:02:24;8.40;;;4.07;;
39502;SDS011;26970;49.900;10.774;2023-07-20T04:04:50;8.25;;;4.20;;
39502;SDS011;26970;49.900;10.774;2023-07-20T04:07:16;8.00;;;3.70;;
39502;SDS011;26970;49.900;10.774;2023-07-20T04:09:41;10.40;;;4.20;;
39502;SDS011;26970;49.900;10.774;2023-07-20T04:12:07;7.72;;;3.80;;
39502;SDS011;26970;49.900;10.774;2023-07-20T04:14:33;7.15;;;3.70;;
39502;SDS011;26970;49.900;10.774;2023-07-20T04:16:58;12.20;;;4.43;;
39502;SDS011;26970;49.900;10.774;2023-07-20T04:19:25;6.80;;;3.60;;
39502;SDS011;26970;49.900;10.774;2023-07-20T04:21:51;9.60;;;3.63;;
39502;SDS011;26970;49.900;10.774;2023-07-20T04:24:16;7.13;;;4.03;;
39502;SDS011;26970;49.900;10.774;2023-07-20T04:26:42;7.15;;;3.58;;
39502;SDS011;26970;49.900;10.774;2023-07-20T04:29:07;7.03;;;3.88;;
39502;SDS011;26970;49.900;10.774;2023-07-20T04:31:33;7.40;;;4.03;;
39502;SDS011;26970;49.900;10.774;2023-07-20T04:33:59;8.75;;;3.50;;
39502;SDS011;26970;49.900;10.774;2023-07-20T04:36:24;9.60;;;3.67;;
39502;SDS011;26970;49.900;10.774;2023-07-20T04:38:50;7.93;;;3.40;;
39502;SDS011;26970;49.900;10.774;2023-07-20T04:41:15;5.32;;;3.40;;
39502;SDS011;26970;49.900;10.774;2023-07-20T04:43:41;6.68;;;3.40;;
39502;SDS011;26970;49.900;10.774;2023-07-20T04:46:10;6.72;;;3.67;;
39502;SDS011;26970;49.900;10.774;2023-07-20T04:48:36;10.23;;;3.15;;
39502;SDS011;26970;49.900;10.774;2023-07-20T04:51:02;7.70;;;3.33;;
39502;SDS011;26970;49.900;10.774;2023-07-20T04:53:28;8.38;;;3.40;;
39502;SDS011;26970;49.900;10.774;2023-07-20T04:55:53;5.90;;;3.22;;
39502;SDS011;26970;49.900;10.774;2023-07-20T04:58:19;6.45;;;3.45;;
39502;SDS011;26970;49.900;10.774;2023-07-20T05:00:47;6.97;;;2.88;;
39502;SDS011;26970;49.900;10.774;2023-07-20T05:03:13;5.40;;;3.15;;
39502;SDS011;26970;49.900;10.774;2023-07-20T05:05:39;5.63;;;2.90;;
39502;SDS011;26970;49.900;10.774;2023-07-20T05:08:04;4.90;;;2.88;;
39502;SDS011;26970;49.900;10.774;2023-07-20T05:10:30;5.85;;;3.22;;
39502;SDS011;26970;49.900;10.774;2023-07-20T05:12:57;5.20;;;3.08;;
39502;SDS011;26970;49.900;10.774;2023-07-20T05:15:23;8.02;;;2.92;;
39502;SDS011;26970;49.900;10.774;2023-07-20T05:17:48;5.10;;;2.78;;
39502;SDS011;26970;49.900;10.774;2023-07-20T05:20:14;9.18;;;3.08;;
39502;SDS011;26970;49.900;10.774;2023-07-20T05:22:40;6.38;;;3.35;;
39502;SDS011;26970;49.900;10.774;2023-07-20T05:25:08;8.95;;;2.95;;
39502;SDS011;26970;49.900;10.774;2023-07-20T05:27:38;4.18;;;2.67;;
39502;SDS011;26970;49.900;10.774;2023-07-20T05:30:05;6.82;;;3.33;;
39502;SDS011;26970;49.900;10.774;2023-07-20T05:32:32;6.88;;;3.20;;
39502;SDS011;26970;49.900;10.774;2023-07-20T05:34:58;4.50;;;2.97;;
39502;SDS011;26970;49.900;10.774;2023-07-20T05:37:23;9.25;;;3.30;;
39502;SDS011;26970;49.900;10.774;2023-07-20T05:39:49;7.55;;;3.15;;
39502;SDS011;26970;49.900;10.774;2023-07-20T05:42:15;5.25;;;2.78;;
39502;SDS011;26970;49.900;10.774;2023-07-20T05:44:41;4.25;;;2.75;;
39502;SDS011;26970;49.900;10.774;2023-07-20T05:47:06;5.38;;;3.25;;
39502;SDS011;26970;49.900;10.774;2023-07-20T05:49:32;5.28;;;3.15;;
39502;SDS011;26970;49.900;10.774;2023-07-20T05:51:59;5.53;;;3.10;;
39502;SDS011;26970;49.900;10.774;2023-07-20T05:54:25;8.35;;;3.55;;
39502;SDS011;26970;49.900;10.774;2023-07-20T05:56:52;4.50;;;2.83;;
39502;SDS011;26970;49.900;10.774;2023-07-20T05:59:18;5.90;;;2.80;;
39502;SDS011;26970;49.900;10.774;2023-07-20T06:01:44;7.63;;;3.17;;
39502;SDS011;26970;49.900;10.774;2023-07-20T06:04:10;8.73;;;3.08;;
39502;SDS011;26970;49.900;10.774;2023-07-20T06:06:36;4.93;;;3.05;;
39502;SDS011;26970;49.900;10.774;2023-07-20T06:09:01;9.80;;;2.88;;
39502;SDS011;26970;49.900;10.774;2023-07-20T06:11:32;5.10;;;2.72;;
39502;SDS011;26970;49.900;10.774;2023-07-20T06:13:58;5.43;;;3.40;;
39502;SDS011;26970;49.900;10.774;2023-07-20T06:16:23;5.05;;;3.35;;
39502;SDS011;26970;49.900;10.774;2023-07-20T06:18:49;9.98;;;3.65;;
39502;SDS011;26970;49.900;10.774;2023-07-20T06:21:15;6.72;;;3.08;;
39502;SDS011;26970;49.900;10.774;2023-07-20T06:23:40;6.82;;;3.53;;
39502;SDS011;26970;49.900;10.774;2023-07-20T06:26:06;6.00;;;3.47;;
39502;SDS011;26970;49.900;10.774;2023-07-20T06:28:32;7.22;;;3.03;;
39502;SDS011;26970;49.900;10.774;2023-07-20T06:30:59;7.13;;;3.03;;
39502;SDS011;26970;49.900;10.774;2023-07-20T06:33:25;6.10;;;3.53;;
39502;SDS011;26970;49.900;10.774;2023-07-20T06:35:51;9.20;;;3.38;;
39502;SDS011;26970;49.900;10.774;2023-07-20T06:38:17;9.88;;;3.60;;
39502;SDS011;26970;49.900;10.774;2023-07-20T06:40:43;8.07;;;3.58;;
39502;SDS011;26970;49.900;10.774;2023-07-20T06:43:11;4.65;;;2.90;;
39502;SDS011;26970;49.900;10.774;2023-07-20T06:45:36;7.88;;;3.45;;
39502;SDS011;26970;49.900;10.774;2023-07-20T06:48:02;5.60;;;2.63;;
39502;SDS011;26970;49.900;10.774;2023-07-20T06:50:28;6.95;;;3.30;;
39502;SDS011;26970;49.900;10.774;2023-07-20T06:52:54;7.20;;;3.30;;
39502;SDS011;26970;49.900;10.774;2023-07-20T06:55:19;6.30;;;3.17;;
39502;SDS011;26970;49.900;10.774;2023-07-20T06:57:45;6.45;;;2.70;;
39502;SDS011;26970;49.900;10.774;2023-07-20T07:00:10;5.15;;;2.97;;
39502;SDS011;26970;49.900;10.774;2023-07-20T07:02:37;6.78;;;2.58;;
39502;SDS011;26970;49.900;10.774;2023-07-20T07:05:03;7.13;;;3.08;;
39502;SDS011;26970;49.900;10.774;2023-07-20T07:07:29;4.88;;;2.72;;
39502;SDS011;26970;49.900;10.774;2023-07-20T07:09:54;10.30;;;2.80;;
39502;SDS011;26970;49.900;10.774;2023-07-20T07:12:20;5.68;;;2.75;;
39502;SDS011;26970;49.900;10.774;2023-07-20T07:14:45;7.38;;;2.63;;
39502;SDS011;26970;49.900;10.774;2023-07-20T07:17:11;4.68;;;2.40;;
39502;SDS011;26970;49.900;10.774;2023-07-20T07:19:36;5.72;;;2.50;;
39502;SDS011;26970;49.900;10.774;2023-07-20T07:22:03;4.10;;;2.35;;
39502;SDS011;26970;49.900;10.774;2023-07-20T07:24:29;7.00;;;2.65;;
39502;SDS011;26970;49.900;10.774;2023-07-20T07:26:58;5.38;;;2.55;;
39502;SDS011;26970;49.900;10.774;2023-07-20T07:29:24;6.07;;;2.33;;
39502;SDS011;26970;49.900;10.774;2023-07-20T07:31:50;4.95;;;2.35;;
39502;SDS011;26970;49.900;10.774;2023-07-20T07:34:16;6.38;;;2.03;;
39502;SDS011;26970;49.900;10.774;2023-07-20T07:36:42;5.20;;;2.50;;
39502;SDS011;26970;49.900;10.774;2023-07-20T07:39:08;4.03;;;2.20;;
39502;SDS011;26970;49.900;10.774;2023-07-20T07:41:34;4.75;;;2.40;;
39502;SDS011;26970;49.900;10.774;2023-07-20T07:44:00;6.50;;;2.17;;
39502;SDS011;26970;49.900;10.774;2023-07-20T07:46:25;3.60;;;2.10;;
39502;SDS011;26970;49.900;10.774;2023-07-20T07:48:51;4.53;;;2.10;;
39502;SDS011;26970;49.900;10.774;2023-07-20T07:51:16;4.43;;;2.10;;
39502;SDS011;26970;49.900;10.774;2023-07-20T07:53:42;4.32;;;2.03;;
39502;SDS011;26970;49.900;10.774;2023-07-20T07:56:08;3.50;;;2.13;;
39502;SDS011;26970;49.900;10.774;2023-07-20T07:58:34;5.07;;;2.25;;
39502;SDS011;26970;49.900;10.774;2023-07-20T08:01:00;2.72;;;1.85;;
39502;SDS011;26970;49.900;10.774;2023-07-20T08:03:25;4.65;;;2.03;;
39502;SDS011;26970;49.900;10.774;2023-07-20T08:05:51;6.18;;;2.08;;
39502;SDS011;26970;49.900;10.774;2023-07-20T08:08:20;5.13;;;2.20;;
39502;SDS011;26970;49.900;10.774;2023-07-20T08:10:46;4.55;;;2.10;;
39502;SDS011;26970;49.900;10.774;2023-07-20T08:13:12;5.03;;;2.00;;
39502;SDS011;26970;49.900;10.774;2023-07-20T08:15:38;8.30;;;2.35;;
39502;SDS011;26970;49.900;10.774;2023-07-20T08:18:04;4.13;;;1.83;;
39502;SDS011;26970;49.900;10.774;2023-07-20T08:20:30;5.85;;;2.15;;
39502;SDS011;26970;49.900;10.774;2023-07-20T08:22:57;4.03;;;2.08;;
39502;SDS011;26970;49.900;10.774;2023-07-20T08:25:24;4.22;;;2.20;;
39502;SDS011;26970;49.900;10.774;2023-07-20T08:27:50;4.07;;;2.00;;
39502;SDS011;26970;49.900;10.774;2023-07-20T08:30:16;4.57;;;2.10;;
39502;SDS011;26970;49.900;10.774;2023-07-20T08:32:41;5.47;;;2.03;;
39502;SDS011;26970;49.900;10.774;2023-07-20T08:35:07;4.53;;;2.00;;
39502;SDS011;26970;49.900;10.774;2023-07-20T08:37:33;4.82;;;1.92;;
39502;SDS011;26970;49.900;10.774;2023-07-20T08:39:58;4.97;;;2.40;;
39502;SDS011;26970;49.900;10.774;2023-07-20T08:42:24;5.47;;;2.20;;
39502;SDS011;26970;49.900;10.774;2023-07-20T08:44:50;5.28;;;2.05;;
39502;SDS011;26970;49.900;10.774;2023-07-20T08:47:18;5.00;;;2.28;;
39502;SDS011;26970;49.900;10.774;2023-07-20T08:49:46;3.75;;;2.15;;
39502;SDS011;26970;49.900;10.774;2023-07-20T08:52:13;6.05;;;2.60;;
39502;SDS011;26970;49.900;10.774;2023-07-20T08:54:39;4.68;;;2.30;;
39502;SDS011;26970;49.900;10.774;2023-07-20T08:57:05;5.90;;;2.47;;
39502;SDS011;26970;49.900;10.774;2023-07-20T08:59:31;6.55;;;2.65;;
39502;SDS011;26970;49.900;10.774;2023-07-20T09:01:58;8.73;;;2.25;;
39502;SDS011;26970;49.900;10.774;2023-07-20T09:04:24;11.80;;;2.50;;
39502;SDS011;26970;49.900;10.774;2023-07-20T09:06:49;6.32;;;2.72;;
39502;SDS011;26970;49.900;10.774;2023-07-20T09:09:15;6.35;;;2.80;;
39502;SDS011;26970;49.900;10.774;2023-07-20T09:11:41;6.50;;;2.90;;
39502;SDS011;26970;49.900;10.774;2023-07-20T09:14:08;5.43;;;2.53;;
39502;SDS011;26970;49.900;10.774;2023-07-20T09:16:46;4.30;;;2.10;;
39502;SDS011;26970;49.900;10.774;2023-07-20T09:19:16;4.28;;;1.95;;
39502;SDS011;26970;49.900;10.774;2023-07-20T09:21:45;11.10;;;2.15;;
39502;SDS011;26970;49.900;10.774;2023-07-20T09:24:17;6.85;;;2.83;;
39502;SDS011;26970;49.900;10.774;2023-07-20T09:26:44;4.07;;;2.40;;
39502;SDS011;26970;49.900;10.774;2023-07-20T09:29:13;7.57;;;2.70;;
39502;SDS011;26970;49.900;10.774;2023-07-20T09:31:42;6.65;;;2.63;;
39502;SDS011;26970;49.900;10.774;2023-07-20T09:34:22;7.07;;;2.67;;
39502;SDS011;26970;49.900;10.774;2023-07-20T09:36:48;5.35;;;2.35;;
39502;SDS011;26970;49.900;10.774;2023-07-20T09:39:14;12.10;;;2.70;;
39502;SDS011;26970;49.900;10.774;2023-07-20T09:41:40;7.63;;;2.85;;
39502;SDS011;26970;49.900;10.774;2023-07-20T09:44:07;4.57;;;2.92;;
39502;SDS011;26970;49.900;10.774;2023-07-20T09:46:44;5.30;;;2.92;;
39502;SDS011;26970;49.900;10.774;2023-07-20T09:49:11;6.35;;;2.78;;
39502;SDS011;26970;49.900;10.774;2023-07-20T09:51:37;6.95;;;2.50;;
39502;SDS011;26970;49.900;10.774;2023-07-20T09:54:03;5.63;;;2.80;;
39502;SDS011;26970;49.900;10.774;2023-07-20T09:56:29;5.13;;;2.33;;
39502;SDS011;26970;49.900;10.774;2023-07-20T09:58:56;6.30;;;2.38;;
39502;SDS011;26970;49.900;10.774;2023-07-20T10:01:21;6.50;;;2.45;;
39502;SDS011;26970;49.900;10.774;2023-07-20T10:03:48;4.68;;;2.30;;
39502;SDS011;26970;49.900;10.774;2023-07-20T10:06:19;7.88;;;2.80;;
39502;SDS011;26970;49.900;10.774;2023-07-20T10:08:48;5.85;;;2.50;;
39502;SDS011;26970;49.900;10.774;2023-07-20T10:11:17;6.70;;;2.22;;
39502;SDS011;26970;49.900;10.774;2023-07-20T10:13:44;3.72;;;2.00;;
39502;SDS011;26970;49.900;10.774;2023-07-20T10:16:15;5.80;;;2.13;;
39502;SDS011;26970;49.900;10.774;2023-07-20T10:19:05;5.93;;;1.95;;
39502;SDS011;26970;49.900;10.774;2023-07-20T10:22:05;3.75;;;2.10;;
39502;SDS011;26970;49.900;10.774;2023-07-20T10:24:37;7.70;;;2.40;;
39502;SDS011;26970;49.900;10.774;2023-07-20T10:27:04;4.72;;;1.70;;
39502;SDS011;26970;49.900;10.774;2023-07-20T10:29:30;8.25;;;2.38;;
39502;SDS011;26970;49.900;10.774;2023-07-20T10:31:57;3.85;;;2.08;;
39502;SDS011;26970;49.900;10.774;2023-07-20T10:34:23;4.72;;;2.20;;
39502;SDS011;26970;49.900;10.774;2023-07-20T10:36:49;4.72;;;2.20;;
39502;SDS011;26970;49.900;10.774;2023-07-20T10:39:25;7.18;;;2.15;;
39502;SDS011;26970;49.900;10.774;2023-07-20T10:42:02;5.07;;;2.53;;
39502;SDS011;26970;49.900;10.774;2023-07-20T10:44:31;4.93;;;2.20;;
39502;SDS011;26970;49.900;10.774;2023-07-20T10:47:00;5.00;;;2.45;;
39502;SDS011;26970;49.900;10.774;2023-07-20T10:49:27;5.65;;;2.42;;
39502;SDS011;26970;49.900;10.774;2023-07-20T10:51:57;5.90;;;2.35;;
39502;SDS011;26970;49.900;10.774;2023-07-20T10:56:54;4.95;;;1.98;;
39502;SDS011;26970;49.900;10.774;2023-07-20T11:01:49;4.85;;;1.90;;
39502;SDS011;26970;49.900;10.774;2023-07-20T11:04:20;4.03;;;2.10;;
39502;SDS011;26970;49.900;10.774;2023-07-20T11:07:06;6.55;;;2.58;;
39502;SDS011;26970;49.900;10.774;2023-07-20T11:09:34;7.60;;;3.25;;
39502;SDS011;26970;49.900;10.774;2023-07-20T11:12:10;4.03;;;2.38;;
39502;SDS011;26970;49.900;10.774;2023-07-20T11:15:11;6.13;;;2.08;;
39502;SDS011;26970;49.900;10.774;2023-07-20T11:19:56;4.28;;;2.00;;
39502;SDS011;26970;49.900;10.774;2023-07-20T11:22:23;7.10;;;2.13;;
39502;SDS011;26970;49.900;10.774;2023-07-20T11:24:49;4.00;;;2.28;;
39502;SDS011;26970;49.900;10.774;2023-07-20T11:27:15;4.53;;;1.70;;
39502;SDS011;26970;49.900;10.774;2023-07-20T11:29:41;3.35;;;1.88;;
39502;SDS011;26970;49.900;10.774;2023-07-20T11:32:06;7.22;;;2.60;;
39502;SDS011;26970;49.900;10.774;2023-07-20T11:34:33;6.05;;;2.35;;
39502;SDS011;26970;49.900;10.774;2023-07-20T11:37:00;7.07;;;2.67;;
39502;SDS011;26970;49.900;10.774;2023-07-20T11:39:26;4.45;;;2.00;;
39502;SDS011;26970;49.900;10.774;2023-07-20T11:41:52;4.57;;;2.25;;
39502;SDS011;26970;49.900;10.774;2023-07-20T11:44:21;4.43;;;1.95;;
39502;SDS011;26970;49.900;10.774;2023-07-20T11:47:03;4.13;;;2.20;;
39502;SDS011;26970;49.900;10.774;2023-07-20T11:49:34;5.13;;;2.00;;
39502;SDS011;26970;49.900;10.774;2023-07-20T11:52:01;4.28;;;1.60;;
39502;SDS011;26970;49.900;10.774;2023-07-20T11:54:27;3.20;;;2.00;;
39502;SDS011;26970;49.900;10.774;2023-07-20T11:56:54;5.25;;;2.45;;
39502;SDS011;26970;49.900;10.774;2023-07-20T11:59:20;5.25;;;1.92;;
39502;SDS011;26970;49.900;10.774;2023-07-20T12:01:46;3.40;;;1.90;;
39502;SDS011;26970;49.900;10.774;2023-07-20T12:04:12;6.63;;;1.90;;
39502;SDS011;26970;49.900;10.774;2023-07-20T12:06:38;4.15;;;2.10;;
39502;SDS011;26970;49.900;10.774;2023-07-20T12:09:03;2.85;;;1.77;;
39502;SDS011;26970;49.900;10.774;2023-07-20T12:11:36;2.90;;;1.73;;
39502;SDS011;26970;49.900;10.774;2023-07-20T12:14:03;5.45;;;2.20;;
39502;SDS011;26970;49.900;10.774;2023-07-20T12:16:29;8.50;;;3.20;;
39502;SDS011;26970;49.900;10.774;2023-07-20T12:19:14;4.50;;;2.13;;
39502;SDS011;26970;49.900;10.774;2023-07-20T12:21:41;4.75;;;1.65;;
39502;SDS011;26970;49.900;10.774;2023-07-20T12:24:07;3.35;;;2.05;;
39502;SDS011;26970;49.900;10.774;2023-07-20T12:26:34;6.03;;;1.70;;
39502;SDS011;26970;49.900;10.774;2023-07-20T12:29:00;4.43;;;2.08;;
39502;SDS011;26970;49.900;10.774;2023-07-20T12:31:26;11.75;;;2.10;;
39502;SDS011;26970;49.900;10.774;2023-07-20T12:33:52;6.38;;;2.00;;
39502;SDS011;26970;49.900;10.774;2023-07-20T12:36:20;7.60;;;1.77;;
39502;SDS011;26970;49.900;10.774;2023-07-20T12:38:46;5.90;;;1.90;;
39502;SDS011;26970;49.900;10.774;2023-07-20T12:41:12;3.38;;;1.80;;
39502;SDS011;26970;49.900;10.774;2023-07-20T12:43:39;6.13;;;1.98;;
39502;SDS011;26970;49.900;10.774;2023-07-20T12:46:05;8.02;;;2.00;;
39502;SDS011;26970;49.900;10.774;2023-07-20T12:48:31;3.20;;;1.75;;
39502;SDS011;26970;49.900;10.774;2023-07-20T12:50:56;6.43;;;2.13;;
39502;SDS011;26970;49.900;10.774;2023-07-20T12:53:22;9.75;;;2.65;;
39502;SDS011;26970;49.900;10.774;2023-07-20T12:55:47;3.05;;;1.73;;
39502;SDS011;26970;49.900;10.774;2023-07-20T12:58:13;6.03;;;1.80;;
39502;SDS011;26970;49.900;10.774;2023-07-20T13:00:39;4.22;;;2.13;;
39502;SDS011;26970;49.900;10.774;2023-07-20T13:03:05;4.28;;;1.70;;
39502;SDS011;26970;49.900;10.774;2023-07-20T13:05:31;4.63;;;2.45;;
39502;SDS011;26970;49.900;10.774;2023-07-20T13:07:57;2.13;;;1.70;;
39502;SDS011;26970;49.900;10.774;2023-07-20T13:10:23;3.88;;;1.85;;
39502;SDS011;26970;49.900;10.774;2023-07-20T13:12:49;3.65;;;1.95;;
39502;SDS011;26970;49.900;10.774;2023-07-20T13:15:15;4.32;;;1.80;;
39502;SDS011;26970;49.900;10.774;2023-07-20T13:17:43;4.10;;;1.88;;
39502;SDS011;26970;49.900;10.774;2023-07-20T13:20:09;4.07;;;1.90;;
39502;SDS011;26970;49.900;10.774;2023-07-20T13:22:39;4.78;;;1.65;;
39502;SDS011;26970;49.900;10.774;2023-07-20T13:25:06;7.20;;;1.90;;
39502;SDS011;26970;49.900;10.774;2023-07-20T13:27:32;4.32;;;2.00;;
39502;SDS011;26970;49.900;10.774;2023-07-20T13:29:58;5.90;;;1.77;;
39502;SDS011;26970;49.900;10.774;2023-07-20T13:32:25;4.25;;;1.60;;
39502;SDS011;26970;49.900;10.774;2023-07-20T13:34:52;5.38;;;1.80;;
39502;SDS011;26970;49.900;10.774;2023-07-20T13:37:17;4.15;;;1.60;;
39502;SDS011;26970;49.900;10.774;2023-07-20T13:39:43;3.17;;;1.70;;
39502;SDS011;26970;49.900;10.774;2023-07-20T13:42:08;5.65;;;1.80;;
39502;SDS011;26970;49.900;10.774;2023-07-20T13:44:35;5.43;;;2.05;;
39502;SDS011;26970;49.900;10.774;2023-07-20T13:47:02;4.20;;;2.05;;
39502;SDS011;26970;49.900;10.774;2023-07-20T13:49:30;3.38;;;1.70;;
39502;SDS011;26970;49.900;10.774;2023-07-20T13:51:56;3.83;;;1.80;;
39502;SDS011;26970;49.900;10.774;2023-07-20T13:54:22;4.75;;;1.77;;
39502;SDS011;26970;49.900;10.774;2023-07-20T13:56:48;4.22;;;1.65;;
39502;SDS011;26970;49.900;10.774;2023-07-20T13:59:13;3.30;;;1.90;;
39502;SDS011;26970;49.900;10.774;2023-07-20T14:01:39;3.35;;;1.60;;
39502;SDS011;26970;49.900;10.774;2023-07-20T14:04:04;5.88;;;1.90;;
39502;SDS011;26970;49.900;10.774;2023-07-20T14:06:31;3.08;;;1.83;;
39502;SDS011;26970;49.900;10.774;2023-07-20T14:08:58;3.63;;;1.70;;
39502;SDS011;26970;49.900;10.774;2023-07-20T14:11:25;4.82;;;1.85;;
39502;SDS011;26970;49.900;10.774;2023-07-20T14:13:51;3.72;;;1.90;;
39502;SDS011;26970;49.900;10.774;2023-07-20T14:16:18;3.53;;;1.70;;
39502;SDS011;26970;49.900;10.774;2023-07-20T14:18:44;6.00;;;1.80;;
39502;SDS011;26970;49.900;10.774;2023-07-20T14:21:13;3.42;;;1.80;;
39502;SDS011;26970;49.900;10.774;2023-07-20T14:23:39;4.75;;;1.70;;
39502;SDS011;26970;49.900;10.774;2023-07-20T14:26:05;4.05;;;1.90;;
39502;SDS011;26970;49.900;10.774;2023-07-20T14:28:32;4.00;;;1.95;;
39502;SDS011;26970;49.900;10.774;2023-07-20T14:30:57;3.78;;;1.88;;
39502;SDS011;26970;49.900;10.774;2023-07-20T14:33:23;3.03;;;1.90;;
39502;SDS011;26970;49.900;10.774;2023-07-20T14:35:49;3.08;;;1.92;;
39502;SDS011;26970;49.900;10.774;2023-07-20T14:38:14;3.50;;;1.50;;
39502;SDS011;26970;49.900;10.774;2023-07-20T14:40:40;3.22;;;1.63;;
39502;SDS011;26970;49.900;10.774;2023-07-20T14:43:06;2.15;;;1.52;;
39502;SDS011;26970;49.900;10.774;2023-07-20T14:45:32;4.53;;;1.73;;
39502;SDS011;26970;49.900;10.774;2023-07-20T14:47:57;2.47;;;1.52;;
39502;SDS011;26970;49.900;10.774;2023-07-20T14:50:23;2.90;;;1.67;;